sensor_id;sensor_type;location;lat;lon;timestamp;pressure;altitude;pressure_sealevel;temperature;humidity
40117;BME280;25829;50.228;18.936;2022-08-04T00:01:36;98788.13;;;16.94;68.92
40117;BME280;25829;50.228;18.936;2022-08-04T00:11:27;98788.75;;;16.85;69.02
40117;BME280;25829;50.228;18.936;2022-08-04T00:14:33;98778.56;;;16.82;69.18
40117;BME280;25829;50.228;18.936;2022-08-04T00:17:43;98784.16;;;16.80;69.21
40117;BME280;25829;50.228;18.936;2022-08-04T00:20:44;98787.63;;;16.81;69.02
40117;BME280;25829;50.228;18.936;2022-08-04T00:23:45;98783.03;;;16.76;68.95
40117;BME280;25829;50.228;18.936;2022-08-04T00:26:52;98780.84;;;16.73;69.23
40117;BME280;25829;50.228;18.936;2022-08-04T00:29:53;98780.25;;;16.71;69.52
40117;BME280;25829;50.228;18.936;2022-08-04T00:32:55;98782.91;;;16.71;69.41
40117;BME280;25829;50.228;18.936;2022-08-04T00:35:58;98783.97;;;16.70;69.44
40117;BME280;25829;50.228;18.936;2022-08-04T00:39:00;98789.31;;;16.70;69.38
40117;BME280;25829;50.228;18.936;2022-08-04T00:48:41;98793.41;;;16.61;69.47
40117;BME280;25829;50.228;18.936;2022-08-04T00:52:05;98789.13;;;16.60;69.78
40117;BME280;25829;50.228;18.936;2022-08-04T00:58:46;98798.31;;;16.52;69.34
40117;BME280;25829;50.228;18.936;2022-08-04T01:02:05;98790.00;;;16.48;69.62
40117;BME280;25829;50.228;18.936;2022-08-04T01:05:39;98792.06;;;16.46;69.48
40117;BME280;25829;50.228;18.936;2022-08-04T01:12:12;98790.13;;;16.42;69.73
40117;BME280;25829;50.228;18.936;2022-08-04T01:18:49;98793.16;;;16.34;69.84
40117;BME280;25829;50.228;18.936;2022-08-04T01:22:17;98784.03;;;16.30;69.99
40117;BME280;25829;50.228;18.936;2022-08-04T01:32:06;98783.34;;;16.22;69.80
40117;BME280;25829;50.228;18.936;2022-08-04T01:35:18;98779.25;;;16.20;69.76
40117;BME280;25829;50.228;18.936;2022-08-04T01:38:34;98782.97;;;16.19;69.86
40117;BME280;25829;50.228;18.936;2022-08-04T01:41:36;98779.75;;;16.17;69.70
40117;BME280;25829;50.228;18.936;2022-08-04T01:44:38;98775.72;;;16.14;69.82
40117;BME280;25829;50.228;18.936;2022-08-04T01:47:47;98781.25;;;16.13;69.63
40117;BME280;25829;50.228;18.936;2022-08-04T01:50:53;98783.84;;;16.08;69.59
40117;BME280;25829;50.228;18.936;2022-08-04T01:53:57;98785.91;;;16.06;69.71
40117;BME280;25829;50.228;18.936;2022-08-04T01:57:00;98786.16;;;16.04;70.02
40117;BME280;25829;50.228;18.936;2022-08-04T02:00:03;98781.75;;;15.98;69.78
40117;BME280;25829;50.228;18.936;2022-08-04T02:03:04;98780.84;;;15.92;69.84
40117;BME280;25829;50.228;18.936;2022-08-04T02:06:23;98773.09;;;15.91;69.92
40117;BME280;25829;50.228;18.936;2022-08-04T02:10:03;98776.00;;;15.89;70.29
40117;BME280;25829;50.228;18.936;2022-08-04T02:16:48;98771.38;;;15.85;70.53
40117;BME280;25829;50.228;18.936;2022-08-04T02:23:13;98764.09;;;15.80;70.14
40117;BME280;25829;50.228;18.936;2022-08-04T02:26:19;98758.44;;;15.76;70.34
40117;BME280;25829;50.228;18.936;2022-08-04T02:32:32;98753.25;;;15.70;70.58
40117;BME280;25829;50.228;18.936;2022-08-04T02:35:42;98757.19;;;15.67;70.88
40117;BME280;25829;50.228;18.936;2022-08-04T02:39:00;98749.44;;;15.66;70.90
40117;BME280;25829;50.228;18.936;2022-08-04T02:42:04;98752.31;;;15.64;70.66
40117;BME280;25829;50.228;18.936;2022-08-04T02:45:05;98753.38;;;15.63;70.47
40117;BME280;25829;50.228;18.936;2022-08-04T02:48:07;98756.50;;;15.60;70.54
40117;BME280;25829;50.228;18.936;2022-08-04T02:51:12;98748.28;;;15.62;70.29
40117;BME280;25829;50.228;18.936;2022-08-04T02:54:16;98756.84;;;15.64;70.42
40117;BME280;25829;50.228;18.936;2022-08-04T02:57:17;98757.28;;;15.61;70.44
40117;BME280;25829;50.228;18.936;2022-08-04T03:00:19;98761.47;;;15.56;70.45
40117;BME280;25829;50.228;18.936;2022-08-04T03:11:13;98766.09;;;15.38;71.18
40117;BME280;25829;50.228;18.936;2022-08-04T03:14:27;98766.44;;;15.29;70.80
40117;BME280;25829;50.228;18.936;2022-08-04T03:37:32;98774.94;;;15.20;71.46
40117;BME280;25829;50.228;18.936;2022-08-04T04:05:33;98774.47;;;15.23;71.70
40117;BME280;25829;50.228;18.936;2022-08-04T04:11:50;98773.59;;;15.29;71.74
40117;BME280;25829;50.228;18.936;2022-08-04T04:25:45;98765.28;;;15.49;72.17
40117;BME280;25829;50.228;18.936;2022-08-04T04:36:20;98770.81;;;15.71;72.50
40117;BME280;25829;50.228;18.936;2022-08-04T04:46:05;98772.06;;;15.92;72.64
40117;BME280;25829;50.228;18.936;2022-08-04T04:49:40;98778.63;;;16.01;72.66
40117;BME280;25829;50.228;18.936;2022-08-04T04:52:56;98781.72;;;16.10;72.78
40117;BME280;25829;50.228;18.936;2022-08-04T04:59:48;98772.31;;;16.31;72.66
40117;BME280;25829;50.228;18.936;2022-08-04T05:05:59;98776.75;;;16.54;73.08
40117;BME280;25829;50.228;18.936;2022-08-04T05:09:34;98781.88;;;16.72;73.16
40117;BME280;25829;50.228;18.936;2022-08-04T05:12:57;98784.22;;;16.85;72.92
40117;BME280;25829;50.228;18.936;2022-08-04T05:16:10;98782.53;;;16.96;72.86
40117;BME280;25829;50.228;18.936;2022-08-04T05:26:00;98783.53;;;17.40;72.42
40117;BME280;25829;50.228;18.936;2022-08-04T05:29:54;98781.19;;;17.61;72.46
40117;BME280;25829;50.228;18.936;2022-08-04T05:32:57;98787.28;;;17.78;71.86
40117;BME280;25829;50.228;18.936;2022-08-04T05:36:05;98786.19;;;17.96;71.52
40117;BME280;25829;50.228;18.936;2022-08-04T05:39:22;98780.81;;;18.13;71.29
40117;BME280;25829;50.228;18.936;2022-08-04T05:42:25;98787.66;;;18.26;70.70
40117;BME280;25829;50.228;18.936;2022-08-04T05:45:27;98782.16;;;18.37;70.67
40117;BME280;25829;50.228;18.936;2022-08-04T05:48:29;98785.50;;;18.50;70.46
40117;BME280;25829;50.228;18.936;2022-08-04T05:51:32;98787.53;;;18.64;70.25
40117;BME280;25829;50.228;18.936;2022-08-04T05:54:34;98793.78;;;18.75;69.67
40117;BME280;25829;50.228;18.936;2022-08-04T05:57:40;98788.63;;;18.91;69.23
40117;BME280;25829;50.228;18.936;2022-08-04T06:00:42;98792.97;;;19.02;68.71
40117;BME280;25829;50.228;18.936;2022-08-04T06:03:45;98785.34;;;19.16;68.36
40117;BME280;25829;50.228;18.936;2022-08-04T06:06:48;98797.22;;;19.30;67.75
40117;BME280;25829;50.228;18.936;2022-08-04T06:09:50;98788.19;;;19.41;67.42
40117;BME280;25829;50.228;18.936;2022-08-04T06:13:06;98794.19;;;19.58;67.08
40117;BME280;25829;50.228;18.936;2022-08-04T06:16:10;98799.94;;;19.72;66.46
40117;BME280;25829;50.228;18.936;2022-08-04T06:19:13;98789.31;;;19.88;66.24
40117;BME280;25829;50.228;18.936;2022-08-04T06:22:17;98782.44;;;20.07;65.97
40117;BME280;25829;50.228;18.936;2022-08-04T06:25:22;98790.00;;;20.25;65.45
40117;BME280;25829;50.228;18.936;2022-08-04T06:28:26;98792.47;;;20.42;64.42
40117;BME280;25829;50.228;18.936;2022-08-04T06:31:27;98796.00;;;20.53;63.64
40117;BME280;25829;50.228;18.936;2022-08-04T06:34:42;98797.66;;;20.64;63.57
40117;BME280;25829;50.228;18.936;2022-08-04T06:37:45;98795.75;;;20.70;62.84
40117;BME280;25829;50.228;18.936;2022-08-04T06:40:47;98797.94;;;20.78;62.76
40117;BME280;25829;50.228;18.936;2022-08-04T06:43:48;98795.78;;;20.90;62.85
40117;BME280;25829;50.228;18.936;2022-08-04T06:46:51;98795.81;;;21.06;62.75
40117;BME280;25829;50.228;18.936;2022-08-04T06:49:54;98795.03;;;21.20;62.50
40117;BME280;25829;50.228;18.936;2022-08-04T06:52:55;98793.97;;;21.37;62.48
40117;BME280;25829;50.228;18.936;2022-08-04T06:55:56;98795.00;;;21.51;61.50
40117;BME280;25829;50.228;18.936;2022-08-04T06:58:58;98797.69;;;21.61;61.46
40117;BME280;25829;50.228;18.936;2022-08-04T07:02:00;98800.34;;;21.66;61.25
40117;BME280;25829;50.228;18.936;2022-08-04T07:05:01;98795.47;;;21.74;61.35
40117;BME280;25829;50.228;18.936;2022-08-04T07:08:03;98789.31;;;21.78;60.26
40117;BME280;25829;50.228;18.936;2022-08-04T07:11:04;98790.38;;;21.82;60.04
40117;BME280;25829;50.228;18.936;2022-08-04T07:14:06;98792.53;;;21.90;58.99
40117;BME280;25829;50.228;18.936;2022-08-04T07:17:08;98794.13;;;21.97;59.64
40117;BME280;25829;50.228;18.936;2022-08-04T07:20:10;98786.03;;;22.07;59.88
40117;BME280;25829;50.228;18.936;2022-08-04T07:23:12;98789.47;;;22.17;59.08
40117;BME280;25829;50.228;18.936;2022-08-04T07:26:17;98790.22;;;22.28;58.71
40117;BME280;25829;50.228;18.936;2022-08-04T07:29:19;98791.78;;;22.39;58.11
40117;BME280;25829;50.228;18.936;2022-08-04T07:32:21;98787.66;;;22.52;58.35
40117;BME280;25829;50.228;18.936;2022-08-04T07:35:23;98790.03;;;22.69;58.10
40117;BME280;25829;50.228;18.936;2022-08-04T07:38:24;98791.47;;;22.91;57.21
40117;BME280;25829;50.228;18.936;2022-08-04T07:41:25;98793.94;;;23.21;56.37
40117;BME280;25829;50.228;18.936;2022-08-04T07:44:26;98784.09;;;23.65;56.27
40117;BME280;25829;50.228;18.936;2022-08-04T07:47:28;98791.03;;;24.00;54.87
40117;BME280;25829;50.228;18.936;2022-08-04T07:50:30;98790.53;;;24.17;55.39
40117;BME280;25829;50.228;18.936;2022-08-04T07:53:31;98780.81;;;24.21;53.91
40117;BME280;25829;50.228;18.936;2022-08-04T07:56:38;98782.41;;;24.22;53.61
40117;BME280;25829;50.228;18.936;2022-08-04T07:59:40;98781.53;;;24.26;53.93
40117;BME280;25829;50.228;18.936;2022-08-04T08:02:42;98779.06;;;24.30;53.66
40117;BME280;25829;50.228;18.936;2022-08-04T08:05:45;98773.31;;;24.37;53.54
40117;BME280;25829;50.228;18.936;2022-08-04T08:08:46;98771.84;;;24.44;51.78
40117;BME280;25829;50.228;18.936;2022-08-04T08:11:49;98782.50;;;24.54;50.71
40117;BME280;25829;50.228;18.936;2022-08-04T08:14:50;98779.31;;;24.71;50.64
40117;BME280;25829;50.228;18.936;2022-08-04T08:17:51;98778.31;;;25.00;49.94
40117;BME280;25829;50.228;18.936;2022-08-04T08:20:52;98783.81;;;25.28;50.18
40117;BME280;25829;50.228;18.936;2022-08-04T08:23:55;98780.97;;;25.52;49.00
40117;BME280;25829;50.228;18.936;2022-08-04T08:26:57;98774.91;;;25.74;46.95
40117;BME280;25829;50.228;18.936;2022-08-04T08:29:59;98781.13;;;26.02;48.64
40117;BME280;25829;50.228;18.936;2022-08-04T08:33:02;98773.66;;;26.35;47.72
40117;BME280;25829;50.228;18.936;2022-08-04T08:40:06;98789.19;;;27.55;44.83
40117;BME280;25829;50.228;18.936;2022-08-04T08:46:58;98788.66;;;29.29;43.15
40117;BME280;25829;50.228;18.936;2022-08-04T08:50:33;98783.38;;;30.17;41.05
40117;BME280;25829;50.228;18.936;2022-08-04T09:08:05;98784.94;;;32.98;37.56
40117;BME280;25829;50.228;18.936;2022-08-04T09:11:14;98786.44;;;33.40;35.86
40117;BME280;25829;50.228;18.936;2022-08-04T09:14:24;98786.13;;;33.57;35.88
40117;BME280;25829;50.228;18.936;2022-08-04T09:17:36;98794.38;;;33.77;37.28
40117;BME280;25829;50.228;18.936;2022-08-04T09:20:47;98794.75;;;34.07;36.05
40117;BME280;25829;50.228;18.936;2022-08-04T09:27:38;98791.75;;;34.67;32.71
40117;BME280;25829;50.228;18.936;2022-08-04T09:30:51;98785.34;;;34.78;34.83
40117;BME280;25829;50.228;18.936;2022-08-04T09:37:43;98790.78;;;35.17;35.91
40117;BME280;25829;50.228;18.936;2022-08-04T09:44:20;98775.94;;;35.64;34.97
40117;BME280;25829;50.228;18.936;2022-08-04T09:47:52;98773.72;;;35.73;33.14
40117;BME280;25829;50.228;18.936;2022-08-04T09:51:11;98769.69;;;35.67;31.98
40117;BME280;25829;50.228;18.936;2022-08-04T10:01:06;98771.06;;;35.54;32.65
40117;BME280;25829;50.228;18.936;2022-08-04T10:04:12;98769.69;;;35.41;33.12
40117;BME280;25829;50.228;18.936;2022-08-04T10:11:13;98766.06;;;34.36;32.40
40117;BME280;25829;50.228;18.936;2022-08-04T10:24:52;98771.41;;;31.85;34.15
40117;BME280;25829;50.228;18.936;2022-08-04T10:28:00;98762.59;;;31.30;36.22
40117;BME280;25829;50.228;18.936;2022-08-04T10:31:13;98763.94;;;30.91;35.80
40117;BME280;25829;50.228;18.936;2022-08-04T10:34:20;98767.91;;;30.60;37.19
40117;BME280;25829;50.228;18.936;2022-08-04T10:37:33;98747.53;;;30.36;36.04
40117;BME280;25829;50.228;18.936;2022-08-04T10:40:44;98756.09;;;30.05;36.69
40117;BME280;25829;50.228;18.936;2022-08-04T10:47:01;98747.06;;;29.54;37.70
40117;BME280;25829;50.228;18.936;2022-08-04T10:50:05;98745.22;;;29.37;37.97
40117;BME280;25829;50.228;18.936;2022-08-04T10:53:12;98745.25;;;29.20;38.20
40117;BME280;25829;50.228;18.936;2022-08-04T10:56:31;98746.06;;;29.03;38.21
40117;BME280;25829;50.228;18.936;2022-08-04T10:59:46;98736.03;;;28.86;38.50
40117;BME280;25829;50.228;18.936;2022-08-04T11:02:57;98735.84;;;28.74;39.09
40117;BME280;25829;50.228;18.936;2022-08-04T11:06:14;98739.72;;;28.64;38.29
40117;BME280;25829;50.228;18.936;2022-08-04T11:09:18;98737.16;;;28.59;39.10
40117;BME280;25829;50.228;18.936;2022-08-04T11:12:27;98744.66;;;28.53;37.76
40117;BME280;25829;50.228;18.936;2022-08-04T11:15:36;98748.63;;;28.39;37.85
40117;BME280;25829;50.228;18.936;2022-08-04T11:25:27;98739.16;;;28.19;39.24
40117;BME280;25829;50.228;18.936;2022-08-04T11:32:02;98733.59;;;28.06;38.83
40117;BME280;25829;50.228;18.936;2022-08-04T11:35:11;98733.88;;;28.05;38.69
40117;BME280;25829;50.228;18.936;2022-08-04T11:38:55;98731.16;;;28.05;37.14
40117;BME280;25829;50.228;18.936;2022-08-04T11:45:27;98728.28;;;28.01;37.57
40117;BME280;25829;50.228;18.936;2022-08-04T11:48:36;98725.41;;;27.98;37.93
40117;BME280;25829;50.228;18.936;2022-08-04T11:51:38;98720.66;;;27.95;38.19
40117;BME280;25829;50.228;18.936;2022-08-04T11:54:40;98725.25;;;27.94;38.13
40117;BME280;25829;50.228;18.936;2022-08-04T11:57:43;98724.63;;;27.89;35.22
40117;BME280;25829;50.228;18.936;2022-08-04T12:00:56;98730.34;;;27.87;37.18
40117;BME280;25829;50.228;18.936;2022-08-04T12:04:22;98722.03;;;27.83;37.90
40117;BME280;25829;50.228;18.936;2022-08-04T12:15:25;98710.06;;;27.76;37.75
40117;BME280;25829;50.228;18.936;2022-08-04T12:18:57;98702.59;;;27.81;36.55
40117;BME280;25829;50.228;18.936;2022-08-04T12:22:02;98704.03;;;27.79;37.62
40117;BME280;25829;50.228;18.936;2022-08-04T12:25:13;98707.34;;;27.76;37.78
40117;BME280;25829;50.228;18.936;2022-08-04T12:28:37;98705.16;;;27.78;37.84
40117;BME280;25829;50.228;18.936;2022-08-04T12:31:52;98702.44;;;27.78;37.55
40117;BME280;25829;50.228;18.936;2022-08-04T12:35:06;98701.31;;;27.79;38.22
40117;BME280;25829;50.228;18.936;2022-08-04T12:38:22;98692.84;;;27.80;38.61
40117;BME280;25829;50.228;18.936;2022-08-04T12:41:42;98686.16;;;27.78;37.97
40117;BME280;25829;50.228;18.936;2022-08-04T12:44:46;98687.75;;;27.79;38.05
40117;BME280;25829;50.228;18.936;2022-08-04T12:47:56;98690.13;;;27.80;38.13
40117;BME280;25829;50.228;18.936;2022-08-04T12:50:58;98686.50;;;27.85;38.27
40117;BME280;25829;50.228;18.936;2022-08-04T12:53:59;98681.06;;;27.85;38.05
40117;BME280;25829;50.228;18.936;2022-08-04T12:57:01;98680.28;;;27.85;38.29
40117;BME280;25829;50.228;18.936;2022-08-04T13:00:12;98678.84;;;27.87;38.17
40117;BME280;25829;50.228;18.936;2022-08-04T13:07:38;98672.63;;;27.87;37.71
40117;BME280;25829;50.228;18.936;2022-08-04T13:10:45;98670.53;;;27.83;37.46
40117;BME280;25829;50.228;18.936;2022-08-04T13:13:49;98675.16;;;27.83;37.77
40117;BME280;25829;50.228;18.936;2022-08-04T13:16:58;98669.28;;;27.81;37.46
40117;BME280;25829;50.228;18.936;2022-08-04T13:20:02;98663.19;;;27.75;37.76
40117;BME280;25829;50.228;18.936;2022-08-04T13:23:30;98663.69;;;27.77;36.67
40117;BME280;25829;50.228;18.936;2022-08-04T13:26:31;98653.94;;;27.76;37.99
40117;BME280;25829;50.228;18.936;2022-08-04T13:29:37;98649.94;;;27.74;37.06
40117;BME280;25829;50.228;18.936;2022-08-04T13:32:39;98648.69;;;27.71;37.21
40117;BME280;25829;50.228;18.936;2022-08-04T13:35:45;98640.56;;;27.71;36.09
40117;BME280;25829;50.228;18.936;2022-08-04T13:38:50;98645.97;;;27.71;37.22
40117;BME280;25829;50.228;18.936;2022-08-04T13:41:54;98647.56;;;27.72;37.28
40117;BME280;25829;50.228;18.936;2022-08-04T13:44:58;98638.94;;;27.70;37.36
40117;BME280;25829;50.228;18.936;2022-08-04T13:48:00;98643.09;;;27.68;36.82
40117;BME280;25829;50.228;18.936;2022-08-04T13:51:04;98652.03;;;27.68;37.18
40117;BME280;25829;50.228;18.936;2022-08-04T13:54:05;98651.22;;;27.68;36.99
40117;BME280;25829;50.228;18.936;2022-08-04T13:57:11;98640.06;;;27.69;37.11
40117;BME280;25829;50.228;18.936;2022-08-04T14:00:12;98643.09;;;27.68;36.99
40117;BME280;25829;50.228;18.936;2022-08-04T14:03:43;98639.88;;;27.66;36.01
40117;BME280;25829;50.228;18.936;2022-08-04T14:07:25;98642.41;;;27.62;36.06
40117;BME280;25829;50.228;18.936;2022-08-04T14:11:02;98632.69;;;27.61;36.74
40117;BME280;25829;50.228;18.936;2022-08-04T14:14:15;98640.81;;;27.61;37.11
40117;BME280;25829;50.228;18.936;2022-08-04T14:17:25;98635.22;;;27.57;37.20
40117;BME280;25829;50.228;18.936;2022-08-04T14:20:26;98630.09;;;27.56;37.37
40117;BME280;25829;50.228;18.936;2022-08-04T14:23:28;98637.78;;;27.54;37.12
40117;BME280;25829;50.228;18.936;2022-08-04T14:26:32;98631.22;;;27.55;36.30
40117;BME280;25829;50.228;18.936;2022-08-04T14:29:37;98632.03;;;27.55;36.68
40117;BME280;25829;50.228;18.936;2022-08-04T14:32:56;98632.81;;;27.56;36.54
40117;BME280;25829;50.228;18.936;2022-08-04T14:35:58;98629.31;;;27.55;36.76
40117;BME280;25829;50.228;18.936;2022-08-04T14:38:59;98625.03;;;27.54;36.97
40117;BME280;25829;50.228;18.936;2022-08-04T14:42:00;98614.47;;;27.53;36.82
40117;BME280;25829;50.228;18.936;2022-08-04T14:45:02;98612.09;;;27.51;36.52
40117;BME280;25829;50.228;18.936;2022-08-04T14:48:11;98607.63;;;27.55;36.40
40117;BME280;25829;50.228;18.936;2022-08-04T14:51:14;98603.00;;;27.56;36.47
40117;BME280;25829;50.228;18.936;2022-08-04T14:54:15;98610.06;;;27.57;36.48
40117;BME280;25829;50.228;18.936;2022-08-04T14:57:17;98610.06;;;27.57;36.36
40117;BME280;25829;50.228;18.936;2022-08-04T15:00:34;98601.25;;;27.60;35.90
40117;BME280;25829;50.228;18.936;2022-08-04T15:03:39;98609.72;;;27.58;36.26
40117;BME280;25829;50.228;18.936;2022-08-04T15:06:40;98606.84;;;27.55;36.15
40117;BME280;25829;50.228;18.936;2022-08-04T15:09:41;98607.81;;;27.50;36.34
40117;BME280;25829;50.228;18.936;2022-08-04T15:12:43;98609.22;;;27.48;36.62
40117;BME280;25829;50.228;18.936;2022-08-04T15:15:45;98606.84;;;27.46;37.16
40117;BME280;25829;50.228;18.936;2022-08-04T15:18:50;98619.09;;;27.44;36.52
40117;BME280;25829;50.228;18.936;2022-08-04T15:21:54;98618.59;;;27.42;36.61
40117;BME280;25829;50.228;18.936;2022-08-04T15:24:56;98623.56;;;27.40;36.74
40117;BME280;25829;50.228;18.936;2022-08-04T15:27:57;98610.31;;;27.38;36.50
40117;BME280;25829;50.228;18.936;2022-08-04T15:31:00;98609.84;;;27.36;36.59
40117;BME280;25829;50.228;18.936;2022-08-04T15:34:07;98616.06;;;27.37;36.84
40117;BME280;25829;50.228;18.936;2022-08-04T15:37:08;98606.31;;;27.35;37.06
40117;BME280;25829;50.228;18.936;2022-08-04T15:40:17;98600.44;;;27.33;37.18
40117;BME280;25829;50.228;18.936;2022-08-04T15:50:08;98594.06;;;27.29;37.07
40117;BME280;25829;50.228;18.936;2022-08-04T15:53:09;98595.31;;;27.23;37.54
40117;BME280;25829;50.228;18.936;2022-08-04T16:09:35;98589.91;;;27.01;37.96
40117;BME280;25829;50.228;18.936;2022-08-04T16:12:53;98596.47;;;27.00;37.13
40117;BME280;25829;50.228;18.936;2022-08-04T16:15:56;98597.09;;;26.97;38.09
40117;BME280;25829;50.228;18.936;2022-08-04T16:22:12;98588.63;;;26.89;38.48
40117;BME280;25829;50.228;18.936;2022-08-04T16:25:44;98595.16;;;26.88;38.73
40117;BME280;25829;50.228;18.936;2022-08-04T16:28:47;98585.25;;;26.84;39.21
40117;BME280;25829;50.228;18.936;2022-08-04T16:35:18;98587.59;;;26.77;39.13
40117;BME280;25829;50.228;18.936;2022-08-04T16:42:28;98590.44;;;26.72;38.69
40117;BME280;25829;50.228;18.936;2022-08-04T16:45:45;98584.53;;;26.70;39.20
40117;BME280;25829;50.228;18.936;2022-08-04T16:49:04;98586.44;;;26.69;39.53
40117;BME280;25829;50.228;18.936;2022-08-04T16:52:06;98584.69;;;26.64;40.37
40117;BME280;25829;50.228;18.936;2022-08-04T16:55:07;98582.09;;;26.59;40.03
40117;BME280;25829;50.228;18.936;2022-08-04T16:58:08;98578.13;;;26.57;40.15
40117;BME280;25829;50.228;18.936;2022-08-04T17:01:11;98580.31;;;26.55;40.35
40117;BME280;25829;50.228;18.936;2022-08-04T17:04:33;98598.78;;;26.53;40.02
40117;BME280;25829;50.228;18.936;2022-08-04T17:07:54;98594.59;;;26.47;40.43
40117;BME280;25829;50.228;18.936;2022-08-04T17:10:55;98594.50;;;26.38;41.03
40117;BME280;25829;50.228;18.936;2022-08-04T17:13:56;98596.25;;;26.34;40.74
40117;BME280;25829;50.228;18.936;2022-08-04T17:16:58;98589.69;;;26.26;41.03
40117;BME280;25829;50.228;18.936;2022-08-04T17:20:00;98593.31;;;26.22;40.92
40117;BME280;25829;50.228;18.936;2022-08-04T17:26:29;98594.81;;;26.14;41.18
40117;BME280;25829;50.228;18.936;2022-08-04T17:29:30;98590.66;;;26.08;41.30
40117;BME280;25829;50.228;18.936;2022-08-04T17:32:33;98589.19;;;26.02;41.51
40117;BME280;25829;50.228;18.936;2022-08-04T17:35:39;98587.38;;;25.97;41.68
40117;BME280;25829;50.228;18.936;2022-08-04T17:38:43;98586.22;;;25.89;41.95
40117;BME280;25829;50.228;18.936;2022-08-04T17:41:44;98590.41;;;25.82;41.97
40117;BME280;25829;50.228;18.936;2022-08-04T17:44:46;98585.75;;;25.74;42.13
40117;BME280;25829;50.228;18.936;2022-08-04T17:47:48;98592.34;;;25.67;42.31
40117;BME280;25829;50.228;18.936;2022-08-04T17:50:49;98583.06;;;25.60;42.40
40117;BME280;25829;50.228;18.936;2022-08-04T17:53:57;98591.28;;;25.55;42.00
40117;BME280;25829;50.228;18.936;2022-08-04T17:57:11;98585.47;;;25.47;42.24
40117;BME280;25829;50.228;18.936;2022-08-04T18:00:14;98587.81;;;25.40;42.23
40117;BME280;25829;50.228;18.936;2022-08-04T18:03:23;98591.69;;;25.34;42.38
40117;BME280;25829;50.228;18.936;2022-08-04T18:06:24;98597.03;;;25.26;42.38
40117;BME280;25829;50.228;18.936;2022-08-04T18:09:31;98600.56;;;25.21;42.32
40117;BME280;25829;50.228;18.936;2022-08-04T18:12:34;98603.97;;;25.13;42.51
40117;BME280;25829;50.228;18.936;2022-08-04T18:15:36;98601.47;;;25.03;42.81
40117;BME280;25829;50.228;18.936;2022-08-04T18:18:37;98608.69;;;24.93;42.89
40117;BME280;25829;50.228;18.936;2022-08-04T18:21:37;98606.66;;;24.85;42.99
40117;BME280;25829;50.228;18.936;2022-08-04T18:24:38;98610.34;;;24.75;43.10
40117;BME280;25829;50.228;18.936;2022-08-04T18:27:51;98611.84;;;24.68;43.30
40117;BME280;25829;50.228;18.936;2022-08-04T18:30:53;98616.00;;;24.60;43.36
40117;BME280;25829;50.228;18.936;2022-08-04T18:33:54;98618.25;;;24.53;43.28
40117;BME280;25829;50.228;18.936;2022-08-04T18:36:55;98617.53;;;24.47;43.34
40117;BME280;25829;50.228;18.936;2022-08-04T18:39:55;98610.13;;;24.39;43.29
40117;BME280;25829;50.228;18.936;2022-08-04T18:42:56;98613.22;;;24.33;43.67
40117;BME280;25829;50.228;18.936;2022-08-04T18:45:57;98622.47;;;24.26;43.80
40117;BME280;25829;50.228;18.936;2022-08-04T18:48:58;98620.13;;;24.20;43.75
40117;BME280;25829;50.228;18.936;2022-08-04T18:51:59;98625.69;;;24.10;43.70
40117;BME280;25829;50.228;18.936;2022-08-04T18:55:00;98624.19;;;24.03;43.95
40117;BME280;25829;50.228;18.936;2022-08-04T18:58:01;98624.78;;;23.95;44.12
40117;BME280;25829;50.228;18.936;2022-08-04T19:01:01;98631.13;;;23.86;44.20
40117;BME280;25829;50.228;18.936;2022-08-04T19:04:02;98623.38;;;23.79;44.59
40117;BME280;25829;50.228;18.936;2022-08-04T19:07:04;98631.84;;;23.72;45.39
40117;BME280;25829;50.228;18.936;2022-08-04T19:10:05;98634.38;;;23.64;45.84
40117;BME280;25829;50.228;18.936;2022-08-04T19:13:06;98628.53;;;23.56;46.35
40117;BME280;25829;50.228;18.936;2022-08-04T19:16:07;98627.06;;;23.45;46.63
40117;BME280;25829;50.228;18.936;2022-08-04T19:19:08;98634.97;;;23.37;46.64
40117;BME280;25829;50.228;18.936;2022-08-04T19:22:09;98633.69;;;23.29;47.05
40117;BME280;25829;50.228;18.936;2022-08-04T19:25:10;98622.78;;;23.20;47.37
40117;BME280;25829;50.228;18.936;2022-08-04T19:28:11;98631.44;;;23.12;47.49
40117;BME280;25829;50.228;18.936;2022-08-04T19:31:12;98626.13;;;23.07;47.54
40117;BME280;25829;50.228;18.936;2022-08-04T19:34:12;98628.63;;;22.98;47.47
40117;BME280;25829;50.228;18.936;2022-08-04T19:37:15;98635.16;;;22.92;47.21
40117;BME280;25829;50.228;18.936;2022-08-04T19:40:16;98634.41;;;22.86;47.20
40117;BME280;25829;50.228;18.936;2022-08-04T19:43:17;98628.84;;;22.78;47.53
40117;BME280;25829;50.228;18.936;2022-08-04T19:46:19;98626.22;;;22.73;47.44
40117;BME280;25829;50.228;18.936;2022-08-04T19:49:20;98631.63;;;22.68;47.46
40117;BME280;25829;50.228;18.936;2022-08-04T19:52:21;98629.00;;;22.62;47.37
40117;BME280;25829;50.228;18.936;2022-08-04T19:55:23;98632.50;;;22.58;47.16
40117;BME280;25829;50.228;18.936;2022-08-04T19:58:24;98629.03;;;22.52;47.27
40117;BME280;25829;50.228;18.936;2022-08-04T20:01:25;98634.97;;;22.49;47.31
40117;BME280;25829;50.228;18.936;2022-08-04T20:04:26;98630.72;;;22.43;47.24
40117;BME280;25829;50.228;18.936;2022-08-04T20:07:27;98633.47;;;22.38;47.52
40117;BME280;25829;50.228;18.936;2022-08-04T20:10:29;98632.69;;;22.32;47.89
40117;BME280;25829;50.228;18.936;2022-08-04T20:13:30;98642.41;;;22.28;48.33
40117;BME280;25829;50.228;18.936;2022-08-04T20:16:30;98630.88;;;22.23;48.65
40117;BME280;25829;50.228;18.936;2022-08-04T20:19:31;98642.22;;;22.14;49.01
40117;BME280;25829;50.228;18.936;2022-08-04T20:22:32;98640.66;;;22.08;49.03
40117;BME280;25829;50.228;18.936;2022-08-04T20:25:33;98632.91;;;22.02;49.50
40117;BME280;25829;50.228;18.936;2022-08-04T20:28:34;98639.41;;;21.96;49.52